Mark Shell — WDI7434 — position and weather

sailwx.info

Track history (hours):
 
Tides and Currents Weather Stations Pressure Air Temp Water Temp Dewpoint Dewpoint Depression Visibility Wind Speed Wind Dir Waves Ship Positions

Mark Shell

Owner: Kirby Inland Marine LP, Houston, TX. More information available from US FCC via Universal Licensing System and Coast Guard Vessel Documentation Center.

Last reported at 2018-Feb-07 09:30 UTC. Time now 2018-Feb-18 22:32 UTC.
Position N 32°33' W 091°06'.
Warning: this ship's position is 11 days out of date.

Length 344 m; draft 3 m.

Type: . MMSI: 367728680.

Date/timePositionNaut miles runAvg speedWind from/ knotsBaromVisibWave heightAir tempDewpointWater temp
2018-Feb-07 09:30N 32°33' W 091°06'3 4.8
2018-Feb-07 08:55N 32°30' W 091°07'2 4.6
2018-Feb-07 08:30N 32°28' W 091°06'2 4.5
2018-Feb-07 08:00N 32°27' W 091°04'2 4.7
2018-Feb-07 07:30N 32°26' W 091°02'2 4.5
2018-Feb-07 07:00N 32°25' W 090°60'2 3.8
2018-Feb-07 06:30N 32°23' W 090°60'2 3.1
2018-Feb-07 06:00N 32°21' W 090°60'3 5.4
2018-Feb-07 05:30N 32°21' W 090°57'1 1.7
2018-Feb-07 05:00N 32°21' W 090°55'0 0.2
2018-Feb-07 04:30N 32°21' W 090°56'0 0.0
2018-Feb-07 04:00N 32°21' W 090°56'0 0.0
2018-Feb-07 03:30N 32°21' W 090°56'0 0.0
2018-Feb-07 03:00N 32°21' W 090°56'0 0.0
2018-Feb-07 02:30N 32°21' W 090°56'0 0.0
2018-Feb-07 02:00N 32°21' W 090°56'0 0.0
2018-Feb-07 01:30N 32°21' W 090°56'0 0.4
2018-Feb-07 01:00N 32°21' W 090°55'2 3.8
2018-Feb-07 00:30N 32°19' W 090°54'2 4.1
2018-Feb-07 00:00N 32°18' W 090°56'2 4.6
2018-Feb-06 23:30N 32°16' W 090°58'2 4.4
2018-Feb-06 23:00N 32°14' W 090°59'2 4.8
2018-Feb-06 22:30N 32°12' W 090°59'2 4.6
2018-Feb-06 22:00N 32°10' W 091°00'2 4.4
2018-Feb-06 21:30N 32°07' W 091°01'2 4.2
2018-Feb-06 21:00N 32°08' W 091°03'3 5.0
2018-Feb-06 20:30N 32°08' W 091°06'5 3.9
2018-Feb-06 19:14N 32°04' W 091°03'1 4.9
2018-Feb-06 18:56N 32°02' W 091°04'2 4.7
2018-Feb-06 18:30N 32°00' W 091°05'1 1.2
2018-Feb-06 18:00N 31°60' W 091°05'0 0.0
2018-Feb-06 17:30N 31°60' W 091°05'0 0.0
2018-Feb-06 17:00N 31°60' W 091°05'0 0.0
2018-Feb-06 16:30N 31°60' W 091°05'0 0.0
2018-Feb-06 15:59N 31°60' W 091°05'0 0.0
2018-Feb-06 15:30N 31°60' W 091°05'0 0.0
2018-Feb-06 15:00N 31°60' W 091°05'0 0.0
2018-Feb-06 14:29N 31°60' W 091°05'5 3.3
2018-Feb-06 13:01N 31°59' W 091°11'  
2018-Feb-01 12:44N 29°50' W 091°58'1 6.3
2018-Feb-01 12:30N 29°50' W 091°59'3 5.9
2018-Feb-01 12:00N 29°49' W 092°02'6 5.8
2018-Feb-01 11:00N 29°47' W 092°09'3 5.3
2018-Feb-01 10:30N 29°47' W 092°12'2 4.4
2018-Feb-01 10:00N 29°48' W 092°14'3 5.4
2018-Feb-01 09:30N 29°49' W 092°17'3 5.6
2018-Feb-01 09:00N 29°50' W 092°20'35 5.8
2018-Feb-01 03:00N 29°56' W 092°59'3 5.9
2018-Feb-01 02:30N 29°56' W 093°02'3 5.9
2018-Feb-01 02:00N 29°56' W 093°06'3 5.9
2018-Feb-01 01:30N 29°56' W 093°09'3 5.8
2018-Feb-01 01:00N 29°58' W 093°11'3 5.9
2018-Feb-01 00:30N 30°00' W 093°14'3 5.4
2018-Feb-01 00:00N 30°02' W 093°16'4 3.9
2018-Jan-31 23:00N 30°06' W 093°18'0 0.4
2018-Jan-31 22:30N 30°06' W 093°18'4 2.5
2018-Jan-31 21:00N 30°04' W 093°22'0 0.1
2018-Jan-31 20:30N 30°04' W 093°22'0 0.6
2018-Jan-31 20:00N 30°04' W 093°21'0 0.0
2018-Jan-31 19:28N 30°04' W 093°21'0 0.0
2018-Jan-31 19:00N 30°04' W 093°21'0 0.0
2018-Jan-31 18:30N 30°04' W 093°21'0 0.0
2018-Jan-31 17:58N 30°04' W 093°21'0 0.0
2018-Jan-31 17:30N 30°04' W 093°21'0 0.0
2018-Jan-31 17:00N 30°04' W 093°21'0 0.0
2018-Jan-31 16:30N 30°04' W 093°21'0 0.1
2018-Jan-31 16:00N 30°04' W 093°21'1 2.7
2018-Jan-31 15:30N 30°05' W 093°20'0 0.0
2018-Jan-31 15:00N 30°05' W 093°20'0 0.9
2018-Jan-31 14:30N 30°04' W 093°21'1 0.9
2018-Jan-31 13:00N 30°04' W 093°22'1 2.0
2018-Jan-31 12:30N 30°04' W 093°23'2 3.3
2018-Jan-31 12:00N 30°04' W 093°25'2 4.1
2018-Jan-31 11:30N 30°04' W 093°27'2 4.8
2018-Jan-31 11:00N 30°04' W 093°30'3 5.5
2018-Jan-31 10:30N 30°04' W 093°33'3 5.7
2018-Jan-31 10:00N 30°04' W 093°36'3 6.2
2018-Jan-31 09:30N 30°03' W 093°40'3 6.1
2018-Jan-31 09:00N 30°03' W 093°44'3 5.9
2018-Jan-31 08:30N 30°01' W 093°46'3 5.5
2018-Jan-31 08:00N 29°59' W 093°48'3 5.6
2018-Jan-31 07:29N 29°58' W 093°51'3 6.7
2018-Jan-31 07:00N 29°55' W 093°53'3 6.6
2018-Jan-31 06:30N 29°53' W 093°56'3 6.3
2018-Jan-31 06:00N 29°50' W 093°57'3 5.8
2018-Jan-31 05:30N 29°48' W 094°00'3 6.5
2018-Jan-31 05:00N 29°46' W 094°03'3 6.4
2018-Jan-31 04:30N 29°44' W 094°06'3 6.4
2018-Jan-31 04:00N 29°42' W 094°09'3 5.8
2018-Jan-31 03:30N 29°41' W 094°12'2 4.6
2018-Jan-31 03:00N 29°40' W 094°14'3 5.3
2018-Jan-31 02:30N 29°39' W 094°17'3 6.0
2018-Jan-31 02:00N 29°37' W 094°20'2 5.0
2018-Jan-31 01:30N 29°36' W 094°22'1 2.5
2018-Jan-31 01:00N 29°36' W 094°24'25 4.1
2018-Jan-30 18:50N 29°29' W 094°52'310.0
2018-Jan-30 18:30N 29°32' W 094°54'5 8.8
2018-Jan-30 17:59N 29°36' W 094°57'4 8.8
2018-Jan-30 17:30N 29°40' W 094°58'4 8.2
2018-Jan-30 17:00N 29°43' W 095°01'4 8.6
2018-Jan-30 16:29N 29°46' W 095°05'1 0.4
2018-Jan-30 15:10N 29°47' W 095°05'2 3.9
2018-Jan-30 14:42N 29°46' W 095°06'0 0.8
2018-Jan-30 14:30N 29°46' W 095°07'1 0.5
2018-Jan-30 13:28N 29°46' W 095°06'1 1.4
2018-Jan-30 13:00N 29°46' W 095°05'2 4.6
2018-Jan-30 12:30N 29°44' W 095°03'2 3.5
2018-Jan-30 12:00N 29°44' W 095°01'0 0.0
2018-Jan-30 11:30N 29°44' W 095°01'0 0.0
2018-Jan-30 10:27N 29°44' W 095°01'0 0.0
2018-Jan-30 09:29N 29°44' W 095°01'0 0.0
2018-Jan-30 08:59N 29°44' W 095°01'0 0.0
2018-Jan-30 08:29N 29°44' W 095°01'0 0.0
2018-Jan-30 08:00N 29°44' W 095°01'0 0.0
2018-Jan-30 07:27N 29°44' W 095°01'0 0.0
2018-Jan-30 06:58N 29°44' W 095°01'0 0.1
2018-Jan-30 05:56N 29°44' W 095°01'2 4.4
2018-Jan-30 05:30N 29°44' W 095°04'2 4.8
2018-Jan-30 05:00N 29°46' W 095°05'0 0.0
2018-Jan-30 02:23N 29°46' W 095°05'1 1.9
2018-Jan-30 01:57N 29°46' W 095°05'3 5.9
2018-Jan-30 01:29N 29°44' W 095°03'1 0.3
2018-Jan-29 23:21N 29°44' W 095°02'1 0.4
2018-Jan-29 21:45N 29°44' W 095°03'1 4.4
2018-Jan-29 21:29N 29°44' W 095°02'0 0.8
2018-Jan-29 20:56N 29°44' W 095°01'0 0.0
2018-Jan-29 20:27N 29°44' W 095°01'0 0.3
2018-Jan-29 19:46N 29°44' W 095°01'0 0.9
2018-Jan-29 19:30N 29°44' W 095°01'5 4.0
2018-Jan-29 18:15N 29°46' W 095°07'1 2.5
2018-Jan-29 17:55N 29°45' W 095°06'0 0.1
2018-Jan-29 16:42N 29°45' W 095°06'1 0.8
2018-Jan-29 15:40N 29°46' W 095°06'0 2.7
2018-Jan-29 15:30N 29°46' W 095°05'2 3.1
2018-Jan-29 14:56N 29°47' W 095°04'0 0.3
2018-Jan-29 14:09N 29°47' W 095°04'0 0.0
2018-Jan-29 14:00N 29°47' W 095°04'0 0.0
2018-Jan-29 13:16N 29°47' W 095°04'0 0.0
2018-Jan-29 12:42N 29°47' W 095°04'0 0.0
2018-Jan-29 12:19N 29°47' W 095°04'0 0.0
2018-Jan-29 11:50N 29°47' W 095°04'0 0.0
2018-Jan-29 11:27N 29°47' W 095°04'1 0.3
2018-Jan-29 09:13N 29°47' W 095°05'1 4.3
2018-Jan-29 09:00N 29°46' W 095°05'0 0.0
2018-Jan-29 04:45N 29°46' W 095°06'0 0.2
2018-Jan-29 02:09N 29°45' W 095°05'1 5.5
2018-Jan-29 02:00N 29°46' W 095°05'1 0.4
2018-Jan-28 23:20N 29°47' W 095°04'0 0.0
2018-Jan-28 19:16N 29°47' W 095°04'2 0.5
2018-Jan-28 14:46N 29°45' W 095°06'0 0.0
2018-Jan-28 14:25N 29°45' W 095°06'2 2.1
2018-Jan-28 13:20N 29°47' W 095°04'2 4.1
2018-Jan-28 12:58N 29°46' W 095°05'  
Track history (hours):
 
Tides and Currents Weather Stations Pressure Air Temp Water Temp Dewpoint Dewpoint Depression Visibility Wind Speed Wind Dir Waves Ship Positions

Mark Shell

Owner: Kirby Inland Marine LP, Houston, TX. More information available from US FCC via Universal Licensing System and Coast Guard Vessel Documentation Center.

Last reported at 2018-Feb-07 09:30 UTC. Time now 2018-Feb-18 22:32 UTC.
Position N 32°33' W 091°06'.
Warning: this ship's position is 11 days out of date.

Length 344 m; draft 3 m.

Type: . MMSI: 367728680.

Date/timePositionNaut miles runAvg speedWind from/ knotsBaromVisibWave heightAir tempDewpointWater temp
2018-Feb-07 09:30N 32°33' W 091°06'3 4.8
2018-Feb-07 08:55N 32°30' W 091°07'2 4.6
2018-Feb-07 08:30N 32°28' W 091°06'2 4.5
2018-Feb-07 08:00N 32°27' W 091°04'2 4.7
2018-Feb-07 07:30N 32°26' W 091°02'2 4.5
2018-Feb-07 07:00N 32°25' W 090°60'2 3.8
2018-Feb-07 06:30N 32°23' W 090°60'2 3.1
2018-Feb-07 06:00N 32°21' W 090°60'3 5.4
2018-Feb-07 05:30N 32°21' W 090°57'1 1.7
2018-Feb-07 05:00N 32°21' W 090°55'0 0.2
2018-Feb-07 04:30N 32°21' W 090°56'0 0.0
2018-Feb-07 04:00N 32°21' W 090°56'0 0.0
2018-Feb-07 03:30N 32°21' W 090°56'0 0.0
2018-Feb-07 03:00N 32°21' W 090°56'0 0.0
2018-Feb-07 02:30N 32°21' W 090°56'0 0.0
2018-Feb-07 02:00N 32°21' W 090°56'0 0.0
2018-Feb-07 01:30N 32°21' W 090°56'0 0.4
2018-Feb-07 01:00N 32°21' W 090°55'2 3.8
2018-Feb-07 00:30N 32°19' W 090°54'2 4.1
2018-Feb-07 00:00N 32°18' W 090°56'2 4.6
2018-Feb-06 23:30N 32°16' W 090°58'2 4.4
2018-Feb-06 23:00N 32°14' W 090°59'2 4.8
2018-Feb-06 22:30N 32°12' W 090°59'2 4.6
2018-Feb-06 22:00N 32°10' W 091°00'2 4.4
2018-Feb-06 21:30N 32°07' W 091°01'2 4.2
2018-Feb-06 21:00N 32°08' W 091°03'3 5.0
2018-Feb-06 20:30N 32°08' W 091°06'5 3.9
2018-Feb-06 19:14N 32°04' W 091°03'1 4.9
2018-Feb-06 18:56N 32°02' W 091°04'2 4.7
2018-Feb-06 18:30N 32°00' W 091°05'1 1.2
2018-Feb-06 18:00N 31°60' W 091°05'0 0.0
2018-Feb-06 17:30N 31°60' W 091°05'0 0.0
2018-Feb-06 17:00N 31°60' W 091°05'0 0.0
2018-Feb-06 16:30N 31°60' W 091°05'0 0.0
2018-Feb-06 15:59N 31°60' W 091°05'0 0.0
2018-Feb-06 15:30N 31°60' W 091°05'0 0.0
2018-Feb-06 15:00N 31°60' W 091°05'0 0.0
2018-Feb-06 14:29N 31°60' W 091°05'5 3.3
2018-Feb-06 13:01N 31°59' W 091°11'  
2018-Feb-01 12:44N 29°50' W 091°58'1 6.3
2018-Feb-01 12:30N 29°50' W 091°59'3 5.9
2018-Feb-01 12:00N 29°49' W 092°02'6 5.8
2018-Feb-01 11:00N 29°47' W 092°09'3 5.3
2018-Feb-01 10:30N 29°47' W 092°12'2 4.4
2018-Feb-01 10:00N 29°48' W 092°14'3 5.4
2018-Feb-01 09:30N 29°49' W 092°17'3 5.6
2018-Feb-01 09:00N 29°50' W 092°20'35 5.8
2018-Feb-01 03:00N 29°56' W 092°59'3 5.9
2018-Feb-01 02:30N 29°56' W 093°02'3 5.9
2018-Feb-01 02:00N 29°56' W 093°06'3 5.9
2018-Feb-01 01:30N 29°56' W 093°09'3 5.8
2018-Feb-01 01:00N 29°58' W 093°11'3 5.9
2018-Feb-01 00:30N 30°00' W 093°14'3 5.4
2018-Feb-01 00:00N 30°02' W 093°16'4 3.9
2018-Jan-31 23:00N 30°06' W 093°18'0 0.4
2018-Jan-31 22:30N 30°06' W 093°18'4 2.5
2018-Jan-31 21:00N 30°04' W 093°22'0 0.1
2018-Jan-31 20:30N 30°04' W 093°22'0 0.6
2018-Jan-31 20:00N 30°04' W 093°21'0 0.0
2018-Jan-31 19:28N 30°04' W 093°21'0 0.0
2018-Jan-31 19:00N 30°04' W 093°21'0 0.0
2018-Jan-31 18:30N 30°04' W 093°21'0 0.0
2018-Jan-31 17:58N 30°04' W 093°21'0 0.0
2018-Jan-31 17:30N 30°04' W 093°21'0 0.0
2018-Jan-31 17:00N 30°04' W 093°21'0 0.0
2018-Jan-31 16:30N 30°04' W 093°21'0 0.1
2018-Jan-31 16:00N 30°04' W 093°21'1 2.7
2018-Jan-31 15:30N 30°05' W 093°20'0 0.0
2018-Jan-31 15:00N 30°05' W 093°20'0 0.9
2018-Jan-31 14:30N 30°04' W 093°21'1 0.9
2018-Jan-31 13:00N 30°04' W 093°22'1 2.0
2018-Jan-31 12:30N 30°04' W 093°23'2 3.3
2018-Jan-31 12:00N 30°04' W 093°25'2 4.1
2018-Jan-31 11:30N 30°04' W 093°27'2 4.8
2018-Jan-31 11:00N 30°04' W 093°30'3 5.5
2018-Jan-31 10:30N 30°04' W 093°33'3 5.7
2018-Jan-31 10:00N 30°04' W 093°36'3 6.2
2018-Jan-31 09:30N 30°03' W 093°40'3 6.1
2018-Jan-31 09:00N 30°03' W 093°44'3 5.9
2018-Jan-31 08:30N 30°01' W 093°46'3 5.5
2018-Jan-31 08:00N 29°59' W 093°48'3 5.6
2018-Jan-31 07:29N 29°58' W 093°51'3 6.7
2018-Jan-31 07:00N 29°55' W 093°53'3 6.6
2018-Jan-31 06:30N 29°53' W 093°56'3 6.3
2018-Jan-31 06:00N 29°50' W 093°57'3 5.8
2018-Jan-31 05:30N 29°48' W 094°00'3 6.5
2018-Jan-31 05:00N 29°46' W 094°03'3 6.4
2018-Jan-31 04:30N 29°44' W 094°06'3 6.4
2018-Jan-31 04:00N 29°42' W 094°09'3 5.8
2018-Jan-31 03:30N 29°41' W 094°12'2 4.6
2018-Jan-31 03:00N 29°40' W 094°14'3 5.3
2018-Jan-31 02:30N 29°39' W 094°17'3 6.0
2018-Jan-31 02:00N 29°37' W 094°20'2 5.0
2018-Jan-31 01:30N 29°36' W 094°22'1 2.5
2018-Jan-31 01:00N 29°36' W 094°24'25 4.1
2018-Jan-30 18:50N 29°29' W 094°52'310.0
2018-Jan-30 18:30N 29°32' W 094°54'5 8.8
2018-Jan-30 17:59N 29°36' W 094°57'4 8.8
2018-Jan-30 17:30N 29°40' W 094°58'4 8.2
2018-Jan-30 17:00N 29°43' W 095°01'4 8.6
2018-Jan-30 16:29N 29°46' W 095°05'1 0.4
2018-Jan-30 15:10N 29°47' W 095°05'2 3.9
2018-Jan-30 14:42N 29°46' W 095°06'0 0.8
2018-Jan-30 14:30N 29°46' W 095°07'1 0.5
2018-Jan-30 13:28N 29°46' W 095°06'1 1.4
2018-Jan-30 13:00N 29°46' W 095°05'2 4.6
2018-Jan-30 12:30N 29°44' W 095°03'2 3.5
2018-Jan-30 12:00N 29°44' W 095°01'0 0.0
2018-Jan-30 11:30N 29°44' W 095°01'0 0.0
2018-Jan-30 10:27N 29°44' W 095°01'0 0.0
2018-Jan-30 09:29N 29°44' W 095°01'0 0.0
2018-Jan-30 08:59N 29°44' W 095°01'0 0.0
2018-Jan-30 08:29N 29°44' W 095°01'0 0.0
2018-Jan-30 08:00N 29°44' W 095°01'0 0.0
2018-Jan-30 07:27N 29°44' W 095°01'0 0.0
2018-Jan-30 06:58N 29°44' W 095°01'0 0.1
2018-Jan-30 05:56N 29°44' W 095°01'2 4.4
2018-Jan-30 05:30N 29°44' W 095°04'2 4.8
2018-Jan-30 05:00N 29°46' W 095°05'0 0.0
2018-Jan-30 02:23N 29°46' W 095°05'1 1.9
2018-Jan-30 01:57N 29°46' W 095°05'3 5.9
2018-Jan-30 01:29N 29°44' W 095°03'1 0.3
2018-Jan-29 23:21N 29°44' W 095°02'1 0.4
2018-Jan-29 21:45N 29°44' W 095°03'1 4.4
2018-Jan-29 21:29N 29°44' W 095°02'0 0.8
2018-Jan-29 20:56N 29°44' W 095°01'0 0.0
2018-Jan-29 20:27N 29°44' W 095°01'0 0.3
2018-Jan-29 19:46N 29°44' W 095°01'0 0.9
2018-Jan-29 19:30N 29°44' W 095°01'5 4.0
2018-Jan-29 18:15N 29°46' W 095°07'1 2.5
2018-Jan-29 17:55N 29°45' W 095°06'0 0.1
2018-Jan-29 16:42N 29°45' W 095°06'1 0.8
2018-Jan-29 15:40N 29°46' W 095°06'0 2.7
2018-Jan-29 15:30N 29°46' W 095°05'2 3.1
2018-Jan-29 14:56N 29°47' W 095°04'0 0.3
2018-Jan-29 14:09N 29°47' W 095°04'0 0.0
2018-Jan-29 14:00N 29°47' W 095°04'0 0.0
2018-Jan-29 13:16N 29°47' W 095°04'0 0.0
2018-Jan-29 12:42N 29°47' W 095°04'0 0.0
2018-Jan-29 12:19N 29°47' W 095°04'0 0.0
2018-Jan-29 11:50N 29°47' W 095°04'0 0.0
2018-Jan-29 11:27N 29°47' W 095°04'1 0.3
2018-Jan-29 09:13N 29°47' W 095°05'1 4.3
2018-Jan-29 09:00N 29°46' W 095°05'0 0.0
2018-Jan-29 04:45N 29°46' W 095°06'0 0.2
2018-Jan-29 02:09N 29°45' W 095°05'1 5.5
2018-Jan-29 02:00N 29°46' W 095°05'1 0.4
2018-Jan-28 23:20N 29°47' W 095°04'0 0.0
2018-Jan-28 19:16N 29°47' W 095°04'2 0.5
2018-Jan-28 14:46N 29°45' W 095°06'0 0.0
2018-Jan-28 14:25N 29°45' W 095°06'2 2.1
2018-Jan-28 13:20N 29°47' W 095°04'2 4.1
2018-Jan-28 12:58N 29°46' W 095°05'  

Dump ship's entire track history